Forside
METAR-TAF:

METAR-TAF

Lufthavne :

South St. Paul Municipal Airport (Richard E. Fleming Field)

South St. Paul, Minnesota, USA

Breddekreds: 44-51-26N, længdekreds: 093-01-58W, højde: 250 m

Aktuelle vejr

Denne rapport blev lavet for 26 minutter siden, kl. 12:35 UTC
Vind 7 kt fra sydøst
Temperatur 0°C
Fugtighed 100%
Tryk 1016 hPa
Sigt: 4.8 km

METAR: KSGS 241235Z AUTO 14007KT 3SM 00/00 A3000 RMK AO2 SKY OBSCURED T00030000 PWINO

Tid: 07:01 (13:01 UTC)


TAF: fraværende

Vejrobservationer og prognoser fra mere end 4000 lufthavne (METAR og TAF).

De gule og røde prikker repræsenterer de meteorologiske stationer.

Flyt musen over at se navnet på stationen.

Så klik over at se vejr observationer og prognoser.

At skifte det kort: Klik på de grønne knapper med et sort kors for at zoome ind; på den grønne knap med en bindestreg for at zoome ud; eller på de grønne pile for tilstødende kort.


METAR-TAF: